createdAt,value
2023-03-20T00:03:54.390Z,2.84
2023-03-20T00:07:57.611Z,2.86
2023-03-20T00:12:00.308Z,2.93
2023-03-20T00:16:02.761Z,2.95
2023-03-20T00:20:05.331Z,2.98
2023-03-20T00:24:07.952Z,3.05
2023-03-20T00:28:31.306Z,3.14
2023-03-20T00:32:33.378Z,3.16
2023-03-20T00:36:35.795Z,3.13
2023-03-20T00:40:38.123Z,3.11
2023-03-20T00:44:51.083Z,3.10
2023-03-20T00:48:53.614Z,3.07
2023-03-20T00:52:57.080Z,3.10
2023-03-20T00:57:02.560Z,3.04
2023-03-20T01:01:04.590Z,2.98
2023-03-20T01:05:06.767Z,3.00
2023-03-20T01:09:08.928Z,2.96
2023-03-20T01:13:19.149Z,3.04
2023-03-20T01:17:23.123Z,3.02
2023-03-20T01:21:25.271Z,3.02
2023-03-20T01:25:27.448Z,3.09
2023-03-20T01:29:32.574Z,3.15
2023-03-20T01:33:34.696Z,3.10
2023-03-20T01:37:37.163Z,3.10
2023-03-20T01:41:39.619Z,3.04
2023-03-20T01:46:14.192Z,3.01
2023-03-20T01:50:26.359Z,2.91
2023-03-20T01:54:43.920Z,2.91
2023-03-20T01:58:54.443Z,2.93
2023-03-20T02:02:57.394Z,2.91
2023-03-20T02:07:21.511Z,2.85
2023-03-20T02:11:43.467Z,2.89
2023-03-20T02:16:10.783Z,2.80
2023-03-20T02:20:43.195Z,2.90
2023-03-20T02:24:51.329Z,2.85
2023-03-20T02:29:04.359Z,2.84
2023-03-20T02:33:39.128Z,2.84
2023-03-20T02:37:59.725Z,2.90
2023-03-20T02:42:33.949Z,2.85
2023-03-20T02:46:45.785Z,2.84
2023-03-20T02:51:27.038Z,2.80
2023-03-20T02:55:39.993Z,2.69
2023-03-20T03:00:18.101Z,2.66
2023-03-20T03:04:27.751Z,2.54
2023-03-20T03:08:37.458Z,2.46
2023-03-20T03:12:45.291Z,2.39
2023-03-20T03:16:49.945Z,2.30
2023-03-20T03:20:56.715Z,2.22
2023-03-20T03:24:59.235Z,2.23
2023-03-20T03:29:09.971Z,2.06
2023-03-20T03:33:17.145Z,2.07
2023-03-20T03:37:35.567Z,2.00
2023-03-20T03:41:46.196Z,1.93
2023-03-20T03:46:24.685Z,1.86
2023-03-20T03:50:38.645Z,1.74
2023-03-20T03:54:53.952Z,1.76
2023-03-20T03:59:19.681Z,1.72
2023-03-20T04:03:29.076Z,1.67
2023-03-20T04:07:31.451Z,1.64
2023-03-20T04:11:35.682Z,1.59
2023-03-20T04:15:38.481Z,1.51
2023-03-20T04:19:42.400Z,1.45
2023-03-20T04:23:44.977Z,1.44
2023-03-20T04:27:47.545Z,1.38
2023-03-20T04:31:59.857Z,1.34
2023-03-20T04:36:30.754Z,1.39
2023-03-20T04:40:33.108Z,1.43
2023-03-20T04:44:35.347Z,1.46
2023-03-20T04:48:38.024Z,1.46
2023-03-20T04:52:40.378Z,1.43
2023-03-20T04:56:42.771Z,1.39
2023-03-20T05:00:51.615Z,1.39
2023-03-20T05:04:54.225Z,1.45
2023-03-20T05:08:56.513Z,1.53
2023-03-20T05:12:58.857Z,1.61
2023-03-20T05:17:19.740Z,1.71
2023-03-20T05:21:41.726Z,1.82
2023-03-20T05:26:00.455Z,2.01
2023-03-20T05:30:11.481Z,2.20
2023-03-20T05:34:31.742Z,2.38
2023-03-20T05:38:44.149Z,2.63
2023-03-20T05:43:05.672Z,2.84
2023-03-20T05:47:16.542Z,3.04
2023-03-20T05:51:31.372Z,3.24
2023-03-20T05:55:45.511Z,3.50
2023-03-20T06:00:06.817Z,3.74
2023-03-20T06:04:20.613Z,3.98
2023-03-20T06:08:40.635Z,4.24
2023-03-20T06:12:43.126Z,4.52
2023-03-20T06:16:45.634Z,4.74
2023-03-20T06:20:53.687Z,4.94
2023-03-20T06:24:57.224Z,5.03
2023-03-20T06:29:06.225Z,5.17
2023-03-20T06:33:10.566Z,5.32
2023-03-20T06:37:26.661Z,5.64
2023-03-20T06:41:36.162Z,5.89
2023-03-20T06:45:43.006Z,6.19
2023-03-20T06:49:53.769Z,6.60
2023-03-20T06:53:56.757Z,6.92
2023-03-20T06:58:02.206Z,7.35
2023-03-20T07:02:06.254Z,7.54
2023-03-20T07:06:09.769Z,7.82
2023-03-20T07:10:12.760Z,8.07
2023-03-20T07:14:17.362Z,8.50
2023-03-20T07:18:25.752Z,8.80
2023-03-20T07:22:29.988Z,9.15
2023-03-20T07:26:48.000Z,9.49
2023-03-20T07:30:50.912Z,9.68
2023-03-20T07:34:53.672Z,9.98
2023-03-20T07:38:56.342Z,9.86
2023-03-20T07:42:59.513Z,9.99
2023-03-20T07:47:20.182Z,10.16
2023-03-20T07:51:22.237Z,10.19
2023-03-20T07:55:24.282Z,10.30
2023-03-20T07:59:26.491Z,10.54
2023-03-20T08:03:28.639Z,10.71
2023-03-20T08:07:31.017Z,10.77
2023-03-20T08:11:34.764Z,10.95
2023-03-20T08:15:37.327Z,11.14
2023-03-20T08:19:39.860Z,11.25
2023-03-20T08:23:41.602Z,11.45
2023-03-20T08:27:43.642Z,11.68
2023-03-20T08:31:45.876Z,11.89
2023-03-20T08:35:58.361Z,12.09
2023-03-20T08:40:00.427Z,12.21
2023-03-20T08:44:02.961Z,12.63
2023-03-20T08:48:05.194Z,12.98
2023-03-20T08:52:07.223Z,13.15
2023-03-20T08:56:10.165Z,13.26
2023-03-20T09:00:15.632Z,13.45
2023-03-20T09:04:18.471Z,13.86
2023-03-20T09:08:20.611Z,13.65
2023-03-20T09:12:22.461Z,13.68
2023-03-20T09:16:24.538Z,13.59
2023-03-20T09:20:26.853Z,13.79
2023-03-20T09:24:29.300Z,14.05
2023-03-20T09:28:31.342Z,14.47
2023-03-20T09:32:35.046Z,14.73
2023-03-20T09:36:37.389Z,14.67
2023-03-20T09:40:52.314Z,14.72
2023-03-20T09:45:01.383Z,15.03
2023-03-20T09:49:18.819Z,14.96
2023-03-20T09:53:36.178Z,15.14
2023-03-20T09:57:42.261Z,15.19
2023-03-20T10:01:50.007Z,15.10
2023-03-20T10:05:59.534Z,15.13
2023-03-20T10:10:01.697Z,15.21
2023-03-20T10:14:06.763Z,15.05
2023-03-20T10:18:18.392Z,15.21
2023-03-20T10:22:40.730Z,15.44
2023-03-20T10:26:46.389Z,15.68
2023-03-20T10:30:57.531Z,16.03
2023-03-20T10:35:02.432Z,16.22
2023-03-20T10:39:10.425Z,16.38
2023-03-20T10:43:23.828Z,16.32
2023-03-20T10:47:30.459Z,16.28
2023-03-20T10:51:48.600Z,16.64
2023-03-20T10:55:51.289Z,16.26
2023-03-20T10:59:58.462Z,16.15
2023-03-20T11:04:00.932Z,15.87
2023-03-20T11:08:13.226Z,15.91
2023-03-20T11:12:20.351Z,15.69
2023-03-20T11:16:33.058Z,15.71
2023-03-20T11:20:40.382Z,15.45
2023-03-20T11:24:46.259Z,15.23
2023-03-20T11:28:56.380Z,15.06
2023-03-20T11:33:02.000Z,14.96
2023-03-20T11:37:19.228Z,14.92
2023-03-20T11:41:30.354Z,14.98
2023-03-20T11:45:37.871Z,15.12
2023-03-20T11:49:55.415Z,15.67
2023-03-20T11:54:14.402Z,16.09
2023-03-20T11:58:17.444Z,15.81
2023-03-20T12:02:23.634Z,16.03
2023-03-20T12:06:36.852Z,16.28
2023-03-20T12:10:43.913Z,16.21
2023-03-20T12:14:52.226Z,16.31
2023-03-20T12:19:01.696Z,16.29
2023-03-20T12:23:14.156Z,16.49
2023-03-20T12:27:29.951Z,16.33
2023-03-20T12:31:53.868Z,16.27
2023-03-20T12:35:58.425Z,16.33
2023-03-20T12:40:04.428Z,16.20
2023-03-20T12:44:27.815Z,15.78
2023-03-20T12:48:44.626Z,15.94
2023-03-20T12:53:08.358Z,16.52
2023-03-20T12:57:33.200Z,16.40
2023-03-20T13:01:57.827Z,16.37
2023-03-20T13:06:31.268Z,16.49
2023-03-20T13:10:40.134Z,15.73
2023-03-20T13:14:52.138Z,15.08
2023-03-20T13:19:12.805Z,14.93
2023-03-20T13:23:36.349Z,15.16
2023-03-20T13:28:04.737Z,15.07
2023-03-20T13:32:21.492Z,15.30
2023-03-20T13:36:54.053Z,15.28
2023-03-20T13:41:03.385Z,15.04
2023-03-20T13:45:19.858Z,15.26
2023-03-20T13:49:27.764Z,15.40
2023-03-20T13:53:46.086Z,15.26
2023-03-20T13:58:13.620Z,15.32
2023-03-20T14:02:44.484Z,14.60
2023-03-20T14:06:54.663Z,14.64
2023-03-20T14:11:06.182Z,14.66
2023-03-20T14:15:12.285Z,14.41
2023-03-20T14:19:19.074Z,14.19
2023-03-20T14:23:34.104Z,14.10
2023-03-20T14:27:53.582Z,14.18
2023-03-20T14:32:13.745Z,14.12
2023-03-20T14:36:21.620Z,13.96
2023-03-20T14:40:30.720Z,13.73
2023-03-20T14:44:53.289Z,13.46
2023-03-20T14:48:56.438Z,13.44
2023-03-20T14:53:27.325Z,13.41
2023-03-20T14:57:52.860Z,13.51
2023-03-20T15:01:59.788Z,13.52
2023-03-20T15:06:06.559Z,13.60
2023-03-20T15:10:08.905Z,13.56
2023-03-20T15:14:21.060Z,13.56
2023-03-20T15:18:25.424Z,13.49
2023-03-20T15:22:27.727Z,13.30
2023-03-20T15:26:32.977Z,13.25
2023-03-20T15:30:38.699Z,13.07
2023-03-20T15:34:42.361Z,12.92
2023-03-20T15:38:46.879Z,12.93
2023-03-20T15:42:58.728Z,12.89
2023-03-20T15:47:04.157Z,12.79
2023-03-20T15:51:06.711Z,12.79
2023-03-20T15:55:16.682Z,12.81
2023-03-20T15:59:23.473Z,12.77
2023-03-20T16:03:27.605Z,12.66
2023-03-20T16:07:32.589Z,12.59
2023-03-20T16:11:43.845Z,12.44
2023-03-20T16:15:46.477Z,12.31
2023-03-20T16:19:48.864Z,12.15
2023-03-20T16:23:54.760Z,12.03
2023-03-20T16:27:58.498Z,11.80
2023-03-20T16:32:07.750Z,11.71
2023-03-20T16:36:18.873Z,11.54
2023-03-20T16:40:32.746Z,11.40
2023-03-20T16:44:36.937Z,11.30
2023-03-20T16:48:42.520Z,11.20
2023-03-20T16:53:10.206Z,11.03
2023-03-20T16:57:18.322Z,10.89
2023-03-20T17:01:23.766Z,10.81
2023-03-20T17:05:36.825Z,10.76
2023-03-20T17:10:14.572Z,10.70
2023-03-20T17:14:17.334Z,10.60
2023-03-20T17:18:19.798Z,10.52
2023-03-20T17:22:24.301Z,10.45
2023-03-20T17:26:26.595Z,10.34
2023-03-20T17:30:28.756Z,10.25
2023-03-20T17:34:31.425Z,10.21
2023-03-20T17:38:33.540Z,10.11
2023-03-20T17:42:35.566Z,9.98
2023-03-20T17:46:53.924Z,9.76
2023-03-20T17:50:59.208Z,9.63
2023-03-20T17:55:01.328Z,9.45
2023-03-20T17:59:03.579Z,9.28
2023-03-20T18:03:05.788Z,9.08
2023-03-20T18:07:09.314Z,8.88
2023-03-20T18:11:11.468Z,8.64
2023-03-20T18:15:13.748Z,8.53
2023-03-20T18:19:25.769Z,8.39
2023-03-20T18:23:28.000Z,8.19
2023-03-20T18:27:29.730Z,8.04
2023-03-20T18:31:31.870Z,7.98
2023-03-20T18:35:37.155Z,7.85
2023-03-20T18:39:39.392Z,7.75
2023-03-20T18:43:41.965Z,7.55
2023-03-20T18:47:44.076Z,7.65
2023-03-20T18:51:46.498Z,7.72
2023-03-20T18:55:48.680Z,7.72
2023-03-20T18:59:50.662Z,7.69
2023-03-20T19:03:53.978Z,7.78
2023-03-20T19:07:56.555Z,7.75
2023-03-20T19:11:58.763Z,7.75
2023-03-20T19:16:01.074Z,7.67
2023-03-20T19:20:03.783Z,7.70
2023-03-20T19:24:07.105Z,7.80
2023-03-20T19:28:21.670Z,7.82
2023-03-20T19:32:25.080Z,7.87
2023-03-20T19:36:32.668Z,7.82
2023-03-20T19:40:43.017Z,7.82
2023-03-20T19:44:45.413Z,7.73
2023-03-20T19:48:51.163Z,7.71
2023-03-20T19:52:56.445Z,7.62
2023-03-20T19:56:58.435Z,7.53
2023-03-20T20:01:00.602Z,7.49
2023-03-20T20:05:02.830Z,7.44
2023-03-20T20:09:05.233Z,7.44
2023-03-20T20:13:07.412Z,7.42
2023-03-20T20:17:09.529Z,7.45
2023-03-20T20:22:02.503Z,7.40
2023-03-20T20:25:33.515Z,7.61
2023-03-20T20:29:35.644Z,7.66
2023-03-20T20:33:38.438Z,7.88
2023-03-20T20:42:05.131Z,9.16
2023-03-20T20:46:06.940Z,9.37
2023-03-20T20:50:11.760Z,9.49
2023-03-20T20:54:14.232Z,9.41
2023-03-20T20:58:16.368Z,9.30
2023-03-20T21:02:18.498Z,9.36
2023-03-20T21:06:21.924Z,9.28
2023-03-20T21:10:24.041Z,9.26
2023-03-20T21:14:26.414Z,9.24
2023-03-20T21:18:28.469Z,9.21
2023-03-20T21:22:30.715Z,9.20
2023-03-20T21:26:32.463Z,9.12
2023-03-20T21:30:34.682Z,9.12
2023-03-20T21:34:38.060Z,9.16
2023-03-20T21:43:02.442Z,9.09
2023-03-20T21:47:55.806Z,9.14
2023-03-20T21:56:40.287Z,9.05
2023-03-20T22:01:03.256Z,8.94
2023-03-20T22:05:34.856Z,8.93
2023-03-20T22:09:45.453Z,8.77
2023-03-20T22:23:00.324Z,8.74
2023-03-20T22:27:18.877Z,8.74
2023-03-20T22:48:20.893Z,8.78
2023-03-20T22:52:34.704Z,8.73
2023-03-20T22:56:40.571Z,8.67
2023-03-20T23:00:42.958Z,8.60
2023-03-20T23:04:45.111Z,8.61
2023-03-20T23:08:54.568Z,8.53
2023-03-20T23:12:59.280Z,8.59
2023-03-20T23:17:01.488Z,8.62
2023-03-20T23:21:04.171Z,8.46
2023-03-20T23:25:16.400Z,8.42
2023-03-20T23:29:23.061Z,8.36
2023-03-20T23:33:25.280Z,8.24
2023-03-20T23:37:27.421Z,8.14
2023-03-20T23:41:54.028Z,8.06
2023-03-20T23:45:51.576Z,7.95
2023-03-20T23:49:53.658Z,7.95
2023-03-20T23:53:55.760Z,7.92
2023-03-20T23:57:57.418Z,7.97
